KRYV

Watertown Municipal Airport

Watertown, Wisconsin, USA
METAR KRYV 182335Z AUTO 35005KT 10SM CLR 25/20 A3000 RMK AO2 T02460196
Observed Flight Rules
Aug-18 @ 23:35 UTC (9 minutes ago) Visual Flight Rules
Wind Visibility Clouds
350° at 5 knots 10 miles
  • Clear skies
Temperatures Readings
Current 25°C / 77°F
Dewpoint 20°C / 68°F
Humidity 74%
Altimeter 30" Hg
Pressure 1016 hPa
Elevation 254
METAR KRYV 182335Z AUTO 35005KT 10SM CLR 25/20 A3000 RMK AO2 T02460196
Observed Flight Rules
Aug-18 @ 23:35 UTC
(9 minutes ago)
VFR
Wind Visibility
350° at 5 knots 10 miles
Clouds
  • Clear skies
Temperature Dewpoint
25°C / 77°F 20°C / 68°F
Humidity Altimeter Pressure
74% 30" Hg 1016 hPa